createdAt,value
2019-03-21T08:39:31.331Z,21.50
2019-03-21T08:42:35.515Z,21.90
2019-03-21T08:45:38.986Z,21.90
2019-03-21T08:48:42.431Z,21.80
2019-03-21T08:51:45.906Z,21.70
2019-03-21T08:54:49.384Z,21.60
2019-03-21T08:57:52.905Z,21.30
2019-03-21T09:00:56.438Z,21.20
2019-03-21T09:03:59.882Z,21.00
2019-03-21T09:07:03.350Z,20.80
2019-03-21T09:10:08.247Z,20.50
2019-03-21T09:13:11.773Z,20.50
2019-03-21T09:16:15.243Z,20.10
2019-03-21T09:19:18.684Z,19.90
2019-03-21T09:22:22.151Z,19.40
2019-03-21T09:25:25.591Z,19.00
2019-03-21T09:28:29.063Z,18.60
2019-03-21T09:31:32.507Z,18.50
2019-03-21T09:34:35.982Z,18.40
2019-03-21T09:37:39.423Z,18.30
2019-03-21T09:40:42.898Z,17.60
2019-03-21T09:43:46.338Z,17.40
2019-03-21T09:46:51.062Z,16.80
2019-03-21T09:49:54.802Z,16.40
2019-03-21T09:52:58.346Z,16.40
2019-03-21T09:56:01.788Z,16.60
2019-03-21T09:59:05.262Z,16.80
2019-03-21T10:02:08.722Z,17.00
2019-03-21T10:05:12.161Z,17.20
2019-03-21T10:08:15.625Z,17.30
2019-03-21T10:11:19.074Z,17.40
2019-03-21T10:14:22.542Z,17.30
2019-03-21T10:17:25.978Z,16.90
2019-03-21T10:20:29.433Z,16.80
2019-03-21T10:23:32.878Z,17.00
2019-03-21T10:26:36.347Z,17.20
2019-03-21T10:29:39.818Z,17.30
2019-03-21T10:32:43.252Z,17.30
2019-03-21T10:35:46.714Z,16.90
2019-03-21T10:38:50.154Z,16.80
2019-03-21T10:41:53.627Z,17.00
2019-03-21T10:44:57.083Z,17.20
2019-03-21T10:48:00.527Z,17.40
2019-03-21T10:51:03.987Z,17.40
2019-03-21T10:54:11.915Z,17.30
2019-03-21T10:57:15.384Z,17.10
2019-03-21T11:00:18.822Z,17.00
2019-03-21T11:03:22.292Z,17.10
2019-03-21T11:06:25.762Z,17.30
2019-03-21T11:09:29.974Z,17.40
2019-03-21T11:12:33.429Z,17.30
2019-03-21T11:15:36.913Z,17.20
2019-03-21T11:18:40.349Z,17.00
2019-03-21T11:21:43.826Z,16.60
2019-03-21T11:24:47.271Z,16.40
2019-03-21T11:27:50.730Z,16.30
2019-03-21T11:30:54.184Z,16.30
2019-03-21T11:33:57.649Z,16.40
2019-03-21T11:37:01.093Z,16.60
2019-03-21T11:40:05.135Z,16.80
2019-03-21T11:43:09.577Z,16.80
2019-03-21T11:46:13.042Z,16.80
2019-03-21T11:49:16.555Z,17.00
2019-03-21T11:52:20.086Z,17.00
2019-03-21T11:55:23.879Z,16.70
2019-03-21T11:58:27.335Z,16.20
2019-03-21T12:01:30.830Z,15.90
2019-03-21T12:04:34.261Z,15.70
2019-03-21T12:07:37.742Z,15.60
2019-03-21T12:10:41.186Z,15.70
2019-03-21T12:13:44.657Z,15.70
2019-03-21T12:16:48.116Z,15.70
2019-03-21T12:19:51.587Z,15.50
2019-03-21T12:22:55.031Z,15.60
2019-03-21T12:25:58.502Z,15.70
2019-03-21T12:29:01.945Z,15.80
2019-03-21T12:32:05.420Z,15.90
2019-03-21T12:35:09.128Z,15.80
2019-03-21T12:38:12.598Z,15.80
2019-03-21T12:41:16.050Z,15.80
2019-03-21T12:44:19.545Z,15.80
2019-03-21T12:47:31.107Z,15.90
2019-03-21T12:50:28.188Z,15.90
2019-03-21T12:53:31.622Z,15.90
2019-03-21T12:56:35.098Z,15.90
2019-03-21T12:59:38.534Z,16.00
2019-03-21T13:02:43.201Z,16.10
2019-03-21T13:05:46.830Z,16.10
2019-03-21T13:08:50.302Z,16.10
2019-03-21T13:11:53.746Z,16.10
2019-03-21T13:14:57.209Z,16.10
2019-03-21T13:18:00.883Z,16.00
2019-03-21T13:21:04.787Z,16.00
2019-03-21T13:24:08.282Z,15.90
2019-03-21T13:27:11.750Z,15.90
2019-03-21T13:30:15.446Z,16.00
2019-03-21T13:33:18.911Z,16.00
2019-03-21T13:36:22.385Z,15.90
2019-03-21T13:39:25.843Z,15.80
2019-03-21T13:42:29.590Z,15.80
2019-03-21T13:45:33.101Z,15.70
2019-03-21T13:48:36.573Z,15.70
2019-03-21T13:51:40.008Z,15.70
2019-03-21T13:54:44.405Z,15.60
2019-03-21T13:57:47.849Z,15.60
2019-03-21T14:00:51.330Z,15.60
2019-03-21T14:03:54.762Z,15.60
2019-03-21T14:06:58.315Z,15.60
2019-03-21T14:10:01.745Z,15.60
2019-03-21T14:13:05.215Z,15.60
2019-03-21T14:16:08.654Z,15.60
2019-03-21T14:19:12.114Z,15.50
2019-03-21T14:22:15.562Z,15.60
2019-03-21T14:25:19.219Z,15.60
2019-03-21T14:28:22.662Z,15.60
2019-03-21T14:31:26.133Z,15.60
2019-03-21T14:34:29.586Z,15.50
2019-03-21T14:37:33.121Z,15.50
2019-03-21T14:40:36.569Z,15.50
2019-03-21T14:43:40.034Z,15.50
2019-03-21T14:46:43.482Z,15.50
2019-03-21T14:49:46.951Z,15.50
2019-03-21T14:52:50.394Z,15.50
2019-03-21T14:55:53.857Z,15.50
2019-03-21T14:58:57.338Z,15.60
2019-03-21T15:02:00.778Z,15.60
2019-03-21T15:05:06.490Z,15.60
2019-03-21T15:08:09.921Z,15.50
2019-03-21T15:11:17.271Z,15.50
2019-03-21T15:14:18.593Z,15.40
2019-03-21T15:17:22.061Z,15.40
2019-03-21T15:20:25.495Z,15.30
2019-03-21T15:23:39.855Z,15.40
2019-03-21T15:26:34.130Z,15.30
2019-03-21T15:29:37.599Z,15.30
2019-03-21T15:32:41.933Z,15.30
2019-03-21T15:35:45.485Z,15.30
2019-03-21T15:38:48.935Z,15.20
2019-03-21T15:41:52.409Z,15.20
2019-03-21T15:45:10.156Z,15.20
2019-03-21T15:48:01.040Z,15.20
2019-03-21T15:51:05.160Z,15.30
2019-03-21T15:54:08.815Z,15.20
2019-03-21T15:57:12.261Z,15.20
2019-03-21T16:00:18.815Z,15.20
2019-03-21T16:03:22.251Z,15.10
2019-03-21T16:06:25.818Z,15.10
2019-03-21T16:09:29.268Z,15.10
2019-03-21T16:12:32.725Z,15.00
2019-03-21T16:15:36.191Z,15.00
2019-03-21T16:18:39.665Z,15.00
2019-03-21T16:21:43.110Z,14.90
2019-03-21T16:24:46.569Z,14.90
2019-03-21T16:27:50.052Z,14.90
2019-03-21T16:30:53.515Z,14.80
2019-03-21T16:33:56.968Z,14.80
2019-03-21T16:37:00.429Z,14.70
2019-03-21T16:40:07.076Z,14.70
2019-03-21T16:43:10.551Z,14.60
2019-03-21T16:46:13.997Z,14.50
2019-03-21T16:49:17.461Z,14.50
2019-03-21T16:52:20.899Z,14.40
2019-03-21T16:55:24.361Z,14.30
2019-03-21T16:58:27.882Z,14.30
2019-03-21T17:01:31.338Z,14.20
2019-03-21T17:04:34.779Z,14.10
2019-03-21T17:07:38.247Z,14.10
2019-03-21T17:10:41.700Z,14.00
2019-03-21T17:13:45.167Z,14.00
2019-03-21T17:16:48.615Z,13.90
2019-03-21T17:19:52.069Z,13.80
2019-03-21T17:22:55.510Z,13.80
2019-03-21T17:25:58.982Z,13.70
2019-03-21T17:29:02.417Z,13.60
2019-03-21T17:32:05.883Z,13.50
2019-03-21T17:35:09.596Z,13.50
2019-03-21T17:38:13.054Z,13.40
2019-03-21T17:41:16.495Z,13.40
2019-03-21T17:44:19.957Z,13.30
2019-03-21T17:47:23.479Z,13.20
2019-03-21T17:50:26.962Z,13.10
2019-03-21T17:53:30.397Z,13.00
2019-03-21T17:56:33.858Z,12.90
2019-03-21T17:59:37.330Z,12.90
2019-03-21T18:02:41.497Z,12.80
2019-03-21T18:05:45.055Z,12.70
2019-03-21T18:08:48.520Z,12.60
2019-03-21T18:11:51.966Z,12.50
2019-03-21T18:14:55.428Z,12.40
2019-03-21T18:17:58.874Z,12.40
2019-03-21T18:21:02.531Z,12.30
2019-03-21T18:24:05.978Z,12.20
2019-03-21T18:27:09.444Z,12.10
2019-03-21T18:30:13.326Z,12.10
2019-03-21T18:33:19.157Z,12.00
2019-03-21T18:36:21.967Z,12.00
2019-03-21T18:39:25.439Z,12.00
2019-03-21T18:42:28.962Z,12.00
2019-03-21T18:45:32.440Z,11.90
2019-03-21T18:48:35.870Z,11.90
2019-03-21T18:51:39.343Z,11.90
2019-03-21T18:54:42.782Z,11.80
2019-03-21T18:57:46.246Z,11.80
2019-03-21T19:00:49.720Z,11.80
2019-03-21T19:03:53.161Z,11.70
2019-03-21T19:06:56.671Z,11.80
2019-03-21T19:10:00.162Z,11.80
2019-03-21T19:13:03.804Z,11.70
2019-03-21T19:16:07.244Z,11.70
2019-03-21T19:19:10.721Z,11.70
2019-03-21T19:22:14.161Z,11.70
2019-03-21T19:25:19.442Z,11.70
2019-03-21T19:28:23.296Z,11.70
2019-03-21T19:31:26.766Z,11.70
2019-03-21T19:34:30.210Z,11.60
2019-03-21T19:37:33.941Z,11.50
2019-03-21T19:40:37.386Z,11.40
2019-03-21T19:43:40.858Z,11.30
2019-03-21T19:46:44.298Z,11.30
2019-03-21T19:49:47.770Z,11.30
2019-03-21T19:52:51.233Z,11.20
2019-03-21T19:55:54.703Z,11.10
2019-03-21T19:58:58.149Z,11.10
2019-03-21T20:02:01.614Z,11.10
2019-03-21T20:05:08.018Z,11.00
2019-03-21T20:08:11.536Z,11.00
2019-03-21T20:11:15.015Z,11.00
2019-03-21T20:14:18.466Z,11.00
2019-03-21T20:17:21.942Z,11.00
2019-03-21T20:20:25.395Z,10.90
2019-03-21T20:23:28.873Z,10.90
2019-03-21T20:26:32.323Z,10.90
2019-03-21T20:29:35.830Z,10.90
2019-03-21T20:32:39.329Z,10.90
2019-03-21T20:35:42.802Z,10.90
2019-03-21T20:38:46.289Z,10.90
2019-03-21T20:41:49.735Z,10.90
2019-03-21T20:44:53.201Z,10.90
2019-03-21T20:47:56.679Z,10.90
2019-03-21T20:51:00.125Z,10.80
2019-03-21T20:54:03.590Z,10.80
2019-03-21T20:57:07.081Z,10.80
2019-03-21T21:00:16.370Z,10.70
2019-03-21T21:03:19.850Z,10.70
2019-03-21T21:06:26.369Z,10.70
2019-03-21T21:09:29.834Z,10.60
2019-03-21T21:12:33.328Z,10.60
2019-03-21T21:15:36.771Z,10.50
2019-03-21T21:18:40.242Z,10.50
2019-03-21T21:21:43.693Z,10.50
2019-03-21T21:24:47.154Z,10.50
2019-03-21T21:27:50.676Z,10.50
2019-03-21T21:30:54.136Z,10.50
2019-03-21T21:33:57.577Z,10.50
2019-03-21T21:37:01.050Z,10.50
2019-03-21T21:40:06.499Z,10.50
2019-03-21T21:43:10.197Z,10.50
2019-03-21T21:46:13.638Z,10.50
2019-03-21T21:49:17.114Z,10.60
2019-03-21T21:52:20.577Z,10.70
2019-03-21T21:55:24.116Z,10.70
2019-03-21T21:58:27.565Z,10.70
2019-03-21T22:01:31.050Z,10.70
2019-03-21T22:04:34.500Z,10.70
2019-03-21T22:07:37.969Z,10.60
2019-03-21T22:10:41.414Z,10.70
2019-03-21T22:13:44.889Z,10.60
2019-03-21T22:16:48.370Z,10.60
2019-03-21T22:19:51.809Z,10.60
2019-03-21T22:22:55.278Z,10.60
2019-03-21T22:25:58.758Z,10.70
2019-03-21T22:29:02.214Z,10.60
2019-03-21T22:32:05.690Z,10.60
2019-03-21T22:35:09.774Z,10.50
2019-03-21T22:38:13.241Z,10.50
2019-03-21T22:41:18.924Z,10.50
2019-03-21T22:44:21.894Z,10.50
2019-03-21T22:47:25.350Z,10.50
2019-03-21T22:50:28.824Z,10.40
2019-03-21T22:53:32.270Z,10.40
2019-03-21T22:56:41.129Z,10.40
2019-03-21T22:59:40.925Z,10.40
2019-03-21T23:02:44.678Z,10.30
2019-03-21T23:05:48.129Z,10.30
2019-03-21T23:08:51.612Z,10.30
2019-03-21T23:11:55.054Z,10.20
2019-03-21T23:14:58.611Z,10.20
2019-03-21T23:18:02.054Z,10.00
2019-03-21T23:21:05.530Z,9.90
2019-03-21T23:24:08.983Z,9.80
2019-03-21T23:27:12.441Z,9.70
2019-03-21T23:30:18.496Z,9.70
2019-03-21T23:33:21.973Z,9.60
2019-03-21T23:36:25.417Z,9.50
2019-03-21T23:39:28.915Z,9.50
2019-03-21T23:42:32.350Z,9.50
2019-03-21T23:45:35.816Z,9.50
2019-03-21T23:48:39.283Z,9.50
2019-03-21T23:51:42.730Z,9.60
2019-03-21T23:54:46.194Z,9.60
2019-03-21T23:57:49.629Z,9.60
